Time;durP1;ratioP1;P1;durP2;ratioP2;P2;SDS_P1;SDS_P2;PMS_P1;PMS_P2;Temp;Humidity;BMP_temperature;BMP_pressure;BME280_temperature;BME280_humidity;BME280_pressure;Samples;Min_cycle;Max_cycle;Signal;HPM_P1;HPM_P2
2023/01/15 00:02:03;;;;;;;45.90;20.85;;;;;;;10.77;75.63;94601.19;5054222;28;20432;-83
2023/01/15 00:04:29;;;;;;;50.17;18.52;;;;;;;10.67;78.00;94599.38;5054879;28;20114;-83
2023/01/15 00:06:54;;;;;;;46.88;20.75;;;;;;;10.63;77.25;94593.84;5039167;28;20033;-83
2023/01/15 00:09:20;;;;;;;47.00;21.15;;;;;;;10.83;76.18;94600.13;5038260;28;20082;-83
2023/01/15 00:11:45;;;;;;;50.25;20.40;;;;;;;10.77;76.19;94598.59;5054723;28;20106;-83
2023/01/15 00:14:11;;;;;;;42.45;20.70;;;;;;;10.83;76.72;94594.91;5054616;28;20034;-83
2023/01/15 00:16:39;;;;;;;54.45;23.70;;;;;;;11.00;76.79;94594.63;5038022;28;20082;-83
2023/01/15 00:19:07;;;;;;;52.17;21.05;;;;;;;10.68;77.82;94598.31;5054270;28;20037;-83
2023/01/15 00:21:32;;;;;;;41.53;19.70;;;;;;;11.10;77.92;94594.63;5021987;28;20033;-83
2023/01/15 00:29:26;;;;;;;39.53;17.65;;;;;;;11.38;75.81;94594.31;5052104;28;20172;-82
2023/01/15 00:31:51;;;;;;;44.72;18.05;;;;;;;11.58;75.27;94589.03;5037566;28;20104;-83
2023/01/15 00:34:17;;;;;;;35.90;16.58;;;;;;;11.58;75.85;94583.78;5037848;28;20037;-83
2023/01/15 00:36:42;;;;;;;36.78;16.65;;;;;;;11.71;74.62;94576.38;5037709;28;20033;-83
2023/01/15 00:39:08;;;;;;;32.67;15.30;;;;;;;11.96;73.14;94569.44;5054144;28;20061;-83
2023/01/15 00:41:33;;;;;;;30.30;14.80;;;;;;;12.00;72.37;94571.25;5038729;28;20029;-83
2023/01/15 00:43:59;;;;;;;42.78;15.65;;;;;;;12.06;71.17;94564.16;5038650;28;20026;-83
2023/01/15 00:46:24;;;;;;;29.40;14.52;;;;;;;12.00;71.14;94566.00;5053989;28;20116;-83
2023/01/15 00:48:50;;;;;;;42.28;15.93;;;;;;;11.98;70.23;94560.22;5021054;28;20017;-83
2023/01/15 00:51:15;;;;;;;30.98;14.57;;;;;;;11.91;69.96;94551.09;5037591;28;20021;-83
2023/01/15 00:53:41;;;;;;;33.65;13.93;;;;;;;11.76;71.57;94544.06;5038412;28;20025;-83
2023/01/15 00:56:06;;;;;;;32.85;13.30;;;;;;;11.98;69.44;94541.84;5037242;28;20021;-83
2023/01/15 00:58:32;;;;;;;25.02;12.60;;;;;;;11.98;69.52;94549.72;5037433;28;20116;-83
2023/01/15 01:00:59;;;;;;;32.22;14.07;;;;;;;11.68;71.54;94533.06;5020580;28;20029;-83
2023/01/15 01:03:25;;;;;;;32.05;14.52;;;;;;;11.56;71.39;94535.22;5053537;28;20067;-83
2023/01/15 01:05:50;;;;;;;29.63;13.57;;;;;;;11.50;70.94;94531.06;5038190;28;20342;-83
2023/01/15 01:08:16;;;;;;;32.42;13.98;;;;;;;11.09;72.90;94531.94;5053516;28;20021;-83
2023/01/15 01:10:42;;;;;;;31.50;13.25;;;;;;;11.35;71.38;94524.03;5037186;28;20045;-82
2023/01/15 01:13:08;;;;;;;32.22;12.65;;;;;;;11.61;70.11;94519.44;5037024;28;20022;-83
2023/01/15 01:15:35;;;;;;;33.58;13.95;;;;;;;11.68;70.37;94522.59;5037065;28;20021;-83
2023/01/15 01:18:00;;;;;;;26.08;12.93;;;;;;;11.39;71.65;94525.84;5036738;28;20120;-83
2023/01/15 01:20:26;;;;;;;37.72;14.25;;;;;;;11.75;68.90;94530.16;5053413;28;20060;-83
2023/01/15 01:22:52;;;;;;;35.80;13.45;;;;;;;11.95;69.27;94537.16;5036667;28;20048;-83
2023/01/15 01:25:17;;;;;;;33.72;13.40;;;;;;;12.05;67.58;94533.69;5036568;28;20423;-83
2023/01/15 01:27:44;;;;;;;33.00;13.95;;;;;;;12.25;67.04;94534.63;5036748;28;20124;-83
2023/01/15 01:30:10;;;;;;;30.88;12.27;;;;;;;12.38;66.25;94517.47;5036613;28;20025;-83
2023/01/15 01:32:36;;;;;;;28.05;12.50;;;;;;;12.38;65.51;94522.72;5053026;28;20127;-83
2023/01/15 01:35:01;;;;;;;33.05;13.73;;;;;;;12.30;65.93;94514.34;5037583;28;20429;-83
2023/01/15 01:37:27;;;;;;;39.42;14.00;;;;;;;12.09;66.50;94510.31;5052942;28;20057;-83
2023/01/15 01:39:52;;;;;;;30.80;13.18;;;;;;;12.22;66.47;94509.69;5037617;28;20025;-83
2023/01/15 01:42:18;;;;;;;31.63;13.75;;;;;;;12.40;66.34;94502.97;5053016;28;20021;-83
2023/01/15 01:44:43;;;;;;;31.13;14.60;;;;;;;11.74;68.23;94505.75;5052957;28;20018;-83
2023/01/15 01:47:14;;;;;;;31.65;13.45;;;;;;;12.17;67.56;94504.47;5037325;28;20084;-83
2023/01/15 01:49:40;;;;;;;26.10;12.63;;;;;;;12.13;67.45;94495.56;5052737;28;20056;-83
2023/01/15 01:52:08;;;;;;;30.55;13.48;;;;;;;12.30;67.74;94497.81;5052738;28;20033;-83
2023/01/15 01:54:36;;;;;;;28.88;13.13;;;;;;;12.18;67.11;94500.78;5036079;28;20453;-83
2023/01/15 01:57:02;;;;;;;26.42;10.40;;;;;;;12.10;68.01;94506.63;5052540;28;20052;-83
2023/01/15 01:59:28;;;;;;;25.48;12.15;;;;;;;11.98;67.28;94499.06;5052580;28;20459;-83
2023/01/15 02:01:54;;;;;;;25.90;10.88;;;;;;;11.87;68.20;94498.31;5019449;28;20048;-82
2023/01/15 02:04:21;;;;;;;23.98;10.13;;;;;;;12.19;67.48;94493.69;5036204;28;20390;-83
2023/01/15 02:06:47;;;;;;;25.95;8.98;;;;;;;11.88;67.43;94494.63;5019545;28;20025;-82
2023/01/15 02:09:12;;;;;;;24.70;8.75;;;;;;;11.79;68.45;94489.19;5012531;28;20456;-82
2023/01/15 02:11:38;;;;;;;22.23;9.63;;;;;;;11.43;71.28;94477.03;5012086;28;20124;-83
2023/01/15 02:14:30;;;;;;;26.50;9.77;;;;;;;12.05;67.49;94475.94;5011054;28;20037;-83
2023/01/15 02:17:00;;;;;;;24.60;8.68;;;;;;;11.67;69.20;94483.47;5028066;28;20025;-83
2023/01/15 02:19:31;;;;;;;25.73;9.27;;;;;;;11.79;68.94;94475.28;5035160;28;20025;-83
2023/01/15 02:22:03;;;;;;;26.55;10.23;;;;;;;11.73;68.92;94467.44;5022369;28;20030;-83
2023/01/15 02:24:40;;;;;;;21.90;8.10;;;;;;;11.80;69.22;94471.59;5030682;28;20021;-82
2023/01/15 02:27:09;;;;;;;22.98;8.88;;;;;;;11.09;71.88;94471.66;5019331;28;20033;-83
2023/01/15 02:29:38;;;;;;;22.25;8.05;;;;;;;11.14;72.19;94456.69;5019453;28;20502;-83
2023/01/15 02:32:09;;;;;;;25.95;8.55;;;;;;;11.51;72.08;94472.28;5036665;28;20035;-83
2023/01/15 02:34:37;;;;;;;27.33;8.73;;;;;;;11.46;72.48;94460.75;5035675;28;20324;-83
2023/01/15 02:37:09;;;;;;;22.15;9.50;;;;;;;11.62;70.82;94458.06;5035364;28;20080;-83
2023/01/15 02:39:37;;;;;;;20.48;7.28;;;;;;;11.94;69.77;94448.94;5036688;28;20461;-82
2023/01/15 02:42:03;;;;;;;14.93;6.88;;;;;;;11.79;70.13;94449.03;5035492;28;20047;-83
2023/01/15 02:44:31;;;;;;;26.63;7.50;;;;;;;11.87;69.43;94435.31;5035305;28;20029;-83
2023/01/15 02:46:57;;;;;;;10.65;5.72;;;;;;;12.03;68.30;94436.03;5035353;28;20109;-83
2023/01/15 02:49:23;;;;;;;24.40;6.47;;;;;;;11.76;70.99;94431.19;5019112;28;20029;-83
2023/01/15 02:52:00;;;;;;;15.77;5.72;;;;;;;11.71;69.94;94424.94;5051939;28;20025;-83
2023/01/15 02:54:28;;;;;;;17.85;5.07;;;;;;;11.68;71.40;94433.34;5035344;28;20529;-83
2023/01/15 02:56:54;;;;;;;20.88;9.60;;;;;;;11.37;72.96;94435.34;5018934;28;20347;-83
2023/01/15 02:59:24;;;;;;;20.13;9.20;;;;;;;11.82;70.21;94427.50;5035249;28;20033;-83
2023/01/15 03:01:54;;;;;;;18.00;7.85;;;;;;;11.50;71.31;94428.75;5035232;28;20029;-83
2023/01/15 03:04:47;;;;;;;23.40;6.07;;;;;;;12.07;68.97;94423.91;5035629;28;20355;-83
2023/01/15 03:07:38;;;;;;;18.20;5.95;;;;;;;12.23;68.26;94421.97;5036562;28;20036;-83
2023/01/15 03:10:04;;;;;;;14.32;5.55;;;;;;;12.27;67.57;94411.69;5036430;28;20453;-83
2023/01/15 03:13:05;;;;;;;24.80;7.22;;;;;;;12.29;67.50;94407.72;5018866;28;20052;-83
2023/01/15 03:18:47;;;;;;;24.38;6.78;;;;;;;12.08;68.33;94390.56;5035366;28;20033;-83
2023/01/15 03:21:18;;;;;;;14.70;7.07;;;;;;;12.30;67.83;94387.50;5018946;28;20124;-83
2023/01/15 03:23:46;;;;;;;25.15;8.85;;;;;;;12.34;67.54;94379.81;5036342;28;20434;-83
2023/01/15 03:26:12;;;;;;;30.40;8.65;;;;;;;11.71;69.41;94382.94;5018680;28;20040;-83
2023/01/15 03:28:38;;;;;;;12.85;5.85;;;;;;;12.29;67.62;94378.81;5035328;28;20029;-83
2023/01/15 03:31:04;;;;;;;20.05;6.53;;;;;;;12.09;69.32;94373.75;5018773;28;20037;-83
2023/01/15 03:33:30;;;;;;;19.80;6.95;;;;;;;12.01;70.13;94370.66;5038157;28;20100;-83
2023/01/15 03:35:58;;;;;;;16.13;6.15;;;;;;;11.77;72.19;94372.41;5022411;28;20494;-83
2023/01/15 03:38:29;;;;;;;15.63;6.82;;;;;;;12.58;67.45;94370.13;5038718;28;20033;-83
2023/01/15 03:41:16;;;;;;;25.13;7.95;;;;;;;11.48;72.01;94368.66;5022500;28;20373;-83
2023/01/15 03:44:07;;;;;;;22.98;7.10;;;;;;;12.50;67.22;94368.13;5038859;28;20324;-83
2023/01/15 03:46:47;;;;;;;21.77;7.70;;;;;;;12.66;66.13;94365.31;5038705;28;20131;-83
2023/01/15 03:49:28;;;;;;;12.27;6.20;;;;;;;12.71;65.37;94371.31;5038749;28;20065;-83
2023/01/15 03:52:52;;;;;;;19.20;6.43;;;;;;;13.01;64.12;94371.22;5039654;28;20070;-83
2023/01/15 03:55:44;;;;;;;21.38;6.60;;;;;;;12.96;63.71;94374.69;4962509;28;20030;-83
2023/01/15 03:58:15;;;;;;;16.27;5.95;;;;;;;13.05;63.11;94374.06;5020119;28;20045;-83
2023/01/15 04:00:45;;;;;;;16.85;6.80;;;;;;;13.17;62.90;94376.28;5021992;28;20028;-83
2023/01/15 04:03:12;;;;;;;18.35;5.38;;;;;;;13.11;62.13;94371.09;5038279;28;20028;-83
2023/01/15 04:05:38;;;;;;;15.10;5.25;;;;;;;13.07;62.11;94366.69;5038251;28;20025;-83
2023/01/15 04:08:05;;;;;;;16.85;4.90;;;;;;;13.27;62.15;94363.00;5038085;28;20026;-83
2023/01/15 04:10:30;;;;;;;20.35;4.95;;;;;;;13.13;61.58;94363.69;5021748;28;20021;-83
2023/01/15 04:12:56;;;;;;;12.52;5.00;;;;;;;13.13;61.19;94355.81;5021781;28;20021;-83
2023/01/15 04:15:21;;;;;;;19.90;5.20;;;;;;;13.11;61.77;94352.69;5038557;28;20025;-83
2023/01/15 04:17:47;;;;;;;20.65;5.40;;;;;;;12.31;63.94;94349.66;5039113;28;20083;-83
2023/01/15 04:20:12;;;;;;;18.35;6.38;;;;;;;12.64;63.77;94334.03;5021618;28;20431;-83
2023/01/15 04:22:38;;;;;;;12.80;4.60;;;;;;;11.87;66.77;94338.97;5021505;28;20108;-83
2023/01/15 04:25:07;;;;;;;16.67;5.03;;;;;;;12.64;64.43;94330.66;5021314;28;20032;-83
2023/01/15 04:27:32;;;;;;;10.13;4.57;;;;;;;12.30;64.18;94329.69;5037765;28;20029;-83
2023/01/15 04:29:58;;;;;;;17.67;6.32;;;;;;;12.21;64.50;94329.53;5037783;28;20048;-83
2023/01/15 04:32:23;;;;;;;21.33;7.18;;;;;;;11.83;67.63;94329.31;5037550;28;20446;-83
2023/01/15 04:34:49;;;;;;;17.08;5.40;;;;;;;11.70;68.32;94334.13;5038815;28;20033;-82
2023/01/15 04:37:16;;;;;;;13.20;5.80;;;;;;;11.79;67.70;94329.06;5037573;28;20021;-82
2023/01/15 04:39:42;;;;;;;19.73;9.25;;;;;;;11.08;72.42;94318.81;5037531;28;20022;-82
2023/01/15 04:44:55;;;;;;;24.17;9.23;;;;;;;11.10;72.06;94319.31;5020100;28;20033;-82
2023/01/15 04:47:20;;;;;;;25.38;7.03;;;;;;;10.87;76.31;94310.28;5034057;28;20030;-82
2023/01/15 04:49:46;;;;;;;21.55;6.88;;;;;;;10.99;75.04;94304.69;5034091;28;20036;-82
2023/01/15 04:52:11;;;;;;;15.07;5.80;;;;;;;10.34;76.87;94298.38;5034009;28;20033;-82
2023/01/15 04:54:38;;;;;;;18.45;5.60;;;;;;;10.51;80.39;94298.09;5018637;28;20065;-82
2023/01/15 04:57:03;;;;;;;12.85;6.20;;;;;;;10.85;76.34;94292.19;5018525;28;20436;-82
2023/01/15 04:59:29;;;;;;;15.48;5.28;;;;;;;10.99;74.93;94281.91;5020078;28;20032;-82
2023/01/15 05:01:54;;;;;;;16.13;6.13;;;;;;;10.95;75.22;94275.59;5053800;28;20355;-82
2023/01/15 05:04:20;;;;;;;21.45;7.57;;;;;;;10.94;75.74;94281.13;5053394;28;20026;-82
2023/01/15 05:06:46;;;;;;;19.35;6.10;;;;;;;10.99;74.32;94268.78;5053574;28;20430;-82
2023/01/15 05:09:11;;;;;;;23.63;7.43;;;;;;;10.82;76.38;94277.00;5037308;28;20052;-82
2023/01/15 05:11:38;;;;;;;21.35;6.95;;;;;;;10.29;81.26;94257.28;5053622;28;20033;-82
2023/01/15 05:14:04;;;;;;;17.98;7.20;;;;;;;11.11;74.67;94265.81;5053449;28;20120;-82
2023/01/15 05:16:31;;;;;;;19.85;5.80;;;;;;;11.10;75.22;94266.88;5053491;28;20029;-82
2023/01/15 05:19:01;;;;;;;14.93;6.55;;;;;;;10.62;78.77;94261.41;5053445;28;20053;-82
2023/01/15 05:21:31;;;;;;;19.63;7.38;;;;;;;11.05;76.71;94253.81;5053341;28;20025;-82
2023/01/15 05:23:59;;;;;;;13.38;5.32;;;;;;;11.37;74.32;94260.41;5053555;28;20094;-82
2023/01/15 05:26:25;;;;;;;20.55;5.10;;;;;;;10.66;78.81;94267.66;5036800;28;20124;-82
2023/01/15 05:28:54;;;;;;;16.00;5.47;;;;;;;11.39;73.96;94266.16;5053318;28;20446;-82
2023/01/15 05:31:21;;;;;;;17.77;6.82;;;;;;;11.39;73.23;94267.97;5053235;28;20029;-82
2023/01/15 05:33:48;;;;;;;16.17;5.80;;;;;;;11.42;73.85;94265.59;5053177;28;20495;-82
2023/01/15 05:36:16;;;;;;;17.67;5.35;;;;;;;11.81;71.66;94268.44;5053110;28;20029;-82
2023/01/15 05:38:42;;;;;;;15.82;6.00;;;;;;;11.39;71.65;94268.78;5036507;28;20025;-82
2023/01/15 05:43:55;;;;;;;21.25;5.57;;;;;;;11.45;73.25;94254.53;5036666;28;20074;-82
2023/01/15 05:46:21;;;;;;;13.88;4.90;;;;;;;11.78;70.32;94246.13;5037377;28;20032;-82
2023/01/15 05:48:47;;;;;;;18.98;4.70;;;;;;;11.63;70.71;94244.44;5052863;28;20029;-82
2023/01/15 05:51:13;;;;;;;14.98;4.93;;;;;;;11.72;69.79;94242.78;5036230;28;20034;-82
2023/01/15 05:53:38;;;;;;;11.48;4.63;;;;;;;11.17;70.80;94248.97;5036169;28;20113;-82
2023/01/15 05:56:04;;;;;;;13.38;5.28;;;;;;;10.61;77.04;94237.03;5035257;28;20029;-82
2023/01/15 05:58:30;;;;;;;16.13;4.70;;;;;;;11.45;73.14;94240.66;5037524;28;20211;-82
2023/01/15 06:00:55;;;;;;;19.50;5.15;;;;;;;11.63;70.31;94244.44;5036094;28;20112;-82
2023/01/15 06:03:22;;;;;;;17.88;4.95;;;;;;;11.96;69.89;94249.09;5019824;28;20124;-82
2023/01/15 06:05:51;;;;;;;13.07;4.40;;;;;;;12.37;68.08;94238.19;5019619;28;20033;-82
2023/01/15 06:08:17;;;;;;;14.50;4.65;;;;;;;12.24;67.71;94244.91;5035905;28;20021;-82
2023/01/15 06:10:46;;;;;;;18.17;4.60;;;;;;;11.83;69.57;94232.19;5019781;28;20029;-82
2023/01/15 06:13:13;;;;;;;15.10;4.15;;;;;;;11.39;73.30;94236.50;5019513;28;20342;-82
2023/01/15 06:15:39;;;;;;;9.15;4.45;;;;;;;10.30;84.68;94247.59;5019591;28;20111;-82
2023/01/15 06:18:05;;;;;;;16.85;4.45;;;;;;;10.98;79.03;94248.88;5035749;28;20343;-82
2023/01/15 06:20:30;;;;;;;8.55;4.57;;;;;;;10.59;80.28;94239.91;5019774;28;20036;-82
2023/01/15 06:22:56;;;;;;;15.07;5.80;;;;;;;11.09;78.00;94238.31;5035629;28;20029;-82
2023/01/15 06:25:21;;;;;;;13.48;4.57;;;;;;;9.44;94.48;94249.09;5035942;28;20446;-82
2023/01/15 06:27:48;;;;;;;14.35;5.32;;;;;;;10.51;86.40;94250.16;5035575;28;20029;-82
2023/01/15 06:30:14;;;;;;;26.13;5.45;;;;;;;11.44;78.42;94241.72;5035481;28;20032;-82
2023/01/15 06:32:40;;;;;;;14.00;4.97;;;;;;;10.48;83.86;94241.03;5035486;28;20037;-82
2023/01/15 06:35:06;;;;;;;13.45;5.10;;;;;;;11.14;81.78;94231.19;5035543;28;20079;-82
2023/01/15 06:37:31;;;;;;;11.60;4.10;;;;;;;11.54;78.14;94227.72;5035719;28;20025;-82
2023/01/15 06:39:56;;;;;;;11.50;4.28;;;;;;;11.88;75.78;94240.00;5036724;28;20506;-82
2023/01/15 06:47:53;;;;;;;17.38;6.85;;;;;;;11.85;72.48;94238.72;5035590;28;20037;-82
2023/01/15 06:50:18;;;;;;;17.50;7.55;;;;;;;11.88;71.39;94237.38;5035433;28;20401;-82
2023/01/15 06:52:44;;;;;;;20.33;7.60;;;;;;;12.01;70.37;94222.81;5019166;28;20449;-82
2023/01/15 06:55:10;;;;;;;17.85;7.93;;;;;;;12.04;70.91;94218.84;5035240;28;20036;-82
2023/01/15 06:57:38;;;;;;;24.20;9.00;;;;;;;11.64;71.71;94213.72;5035271;28;20117;-82
2023/01/15 07:00:04;;;;;;;17.40;7.35;;;;;;;11.62;74.59;94213.22;5051868;28;20029;-82
2023/01/15 07:02:29;;;;;;;16.20;7.90;;;;;;;11.54;74.50;94209.38;5035242;28;20033;-82
2023/01/15 07:04:55;;;;;;;26.17;9.30;;;;;;;11.39;75.16;94200.56;5035322;28;20045;-82
2023/01/15 07:07:20;;;;;;;18.50;7.65;;;;;;;11.58;76.72;94205.91;5038324;28;20144;-82
2023/01/15 07:09:46;;;;;;;21.65;8.82;;;;;;;11.45;74.08;94204.69;5022912;28;20029;-82
2023/01/15 07:12:12;;;;;;;17.58;8.27;;;;;;;11.73;73.66;94199.72;5027864;28;20033;-82
2023/01/15 07:14:37;;;;;;;21.40;8.48;;;;;;;11.70;72.12;94207.38;5032187;28;20328;-82
2023/01/15 07:17:03;;;;;;;22.55;9.18;;;;;;;11.63;72.20;94209.53;5038954;28;20029;-82
2023/01/15 07:19:28;;;;;;;21.95;10.18;;;;;;;11.82;71.08;94218.25;5022838;28;20034;-82
2023/01/15 07:21:54;;;;;;;21.90;9.18;;;;;;;11.81;71.55;94208.06;5022807;28;20029;-82
2023/01/15 07:24:19;;;;;;;30.85;9.90;;;;;;;11.32;73.55;94210.59;5038967;28;20029;-82
2023/01/15 07:26:45;;;;;;;23.52;10.02;;;;;;;11.66;72.29;94207.16;5039095;28;20036;-82
2023/01/15 07:29:10;;;;;;;28.38;11.20;;;;;;;11.34;72.12;94200.63;5038879;28;20029;-82
2023/01/15 07:31:36;;;;;;;27.23;11.25;;;;;;;10.95;77.25;94188.34;5038684;28;20078;-82
2023/01/15 07:34:02;;;;;;;27.83;12.73;;;;;;;9.39;92.06;94190.78;5038758;28;20029;-82
2023/01/15 07:36:29;;;;;;;33.97;14.95;;;;;;;10.44;89.67;94193.63;5038573;28;20036;-86
2023/01/15 07:38:54;;;;;;;31.65;14.18;;;;;;;10.94;84.86;94197.25;5022716;28;20096;-87
2023/01/15 07:49:44;;;;;;;48.15;23.42;;;;;;;11.42;80.28;94207.88;5038709;28;20076;-87
2023/01/15 07:52:09;;;;;;;40.75;20.23;;;;;;;11.01;81.12;94203.75;5024394;28;20343;-86
2023/01/15 07:54:35;;;;;;;40.33;18.15;;;;;;;11.53;79.65;94198.06;5022035;28;20036;-86
2023/01/15 07:57:01;;;;;;;34.45;15.52;;;;;;;11.87;74.94;94204.31;5038267;28;20100;-86
2023/01/15 07:59:26;;;;;;;50.03;24.88;;;;;;;11.59;77.54;94211.94;5021998;28;20049;-86
2023/01/15 08:01:52;;;;;;;60.72;28.02;;;;;;;11.32;77.35;94205.34;5038749;28;20339;-86
2023/01/15 08:04:17;;;;;;;58.70;27.58;;;;;;;11.60;78.61;94214.28;5038384;28;20420;-86
2023/01/15 08:06:42;;;;;;;63.92;31.13;;;;;;;10.50;83.29;94209.31;5021759;28;20074;-86
2023/01/15 08:09:08;;;;;;;59.45;30.67;;;;;;;9.86;94.60;94205.34;5038273;28;20049;-87
2023/01/15 08:17:02;;;;;;;49.63;23.88;;;;;;;11.63;80.09;94189.34;5038325;28;20064;-89
2023/01/15 08:19:28;;;;;;;53.83;22.38;;;;;;;11.93;76.36;94190.06;5054556;28;20409;-89
2023/01/15 08:21:59;;;;;;;54.92;28.00;;;;;;;11.69;78.97;94188.22;5038656;28;20447;-88
2023/01/15 08:24:24;;;;;;;60.47;28.45;;;;;;;11.03;83.59;94185.13;5038653;28;20027;-89
2023/01/15 08:26:51;;;;;;;59.40;28.92;;;;;;;11.77;77.29;94183.44;5038435;28;20021;-89
2023/01/15 08:29:16;;;;;;;73.30;33.53;;;;;;;11.84;75.95;94178.63;5055038;28;20391;-89
2023/01/15 08:31:42;;;;;;;69.93;32.15;;;;;;;11.99;72.64;94175.81;5038435;28;20073;-89
2023/01/15 08:34:07;;;;;;;65.55;32.75;;;;;;;11.34;78.49;94169.16;5038546;28;20431;-89
2023/01/15 08:36:33;;;;;;;515.17;237.35;;;;;;;11.79;78.30;94171.56;5038322;28;20028;-89
2023/01/15 08:38:58;;;;;;;242.23;104.45;;;;;;;12.22;72.38;94167.44;5022081;28;20022;-89
2023/01/15 08:41:24;;;;;;;74.40;36.75;;;;;;;11.62;78.50;94173.88;5022186;28;20025;-89
2023/01/15 08:43:49;;;;;;;316.88;132.05;;;;;;;11.96;78.37;94167.72;5038322;28;20113;-90
2023/01/15 08:46:15;;;;;;;72.38;32.80;;;;;;;11.05;84.05;94167.28;5021692;28;20021;-89
2023/01/15 08:48:40;;;;;;;137.98;60.28;;;;;;;11.27;83.80;94168.69;5021914;28;20339;-89
2023/01/15 08:51:08;;;;;;;78.63;37.85;;;;;;;10.64;87.80;94170.97;5021655;28;20032;-90
2023/01/15 08:53:34;;;;;;;80.80;37.25;;;;;;;11.11;85.25;94165.38;5037480;28;20026;-89
2023/01/15 08:56:00;;;;;;;75.43;36.58;;;;;;;12.05;78.92;94168.69;5021139;28;20029;-90
2023/01/15 08:58:31;;;;;;;62.55;32.22;;;;;;;12.64;74.69;94167.69;5021385;28;20025;-89
2023/01/15 09:01:08;;;;;;;58.58;29.42;;;;;;;12.95;73.47;94160.13;5021856;28;20033;-89
2023/01/15 09:03:34;;;;;;;57.70;28.85;;;;;;;12.93;73.49;94164.13;5021529;28;20024;-89
2023/01/15 09:06:03;;;;;;;45.88;22.35;;;;;;;13.05;72.12;94155.78;5021637;28;20029;-89
2023/01/15 09:08:29;;;;;;;49.47;22.88;;;;;;;13.15;71.65;94160.88;5037672;28;20429;-87
2023/01/15 09:10:58;;;;;;;87.35;42.65;;;;;;;13.51;70.98;94147.13;5020998;28;20049;-87
2023/01/15 09:13:25;;;;;;;47.17;23.10;;;;;;;12.77;73.34;94147.78;5037143;28;20340;-88
2023/01/15 09:15:50;;;;;;;47.67;25.58;;;;;;;12.62;73.39;94165.34;5036696;28;20037;-88
2023/01/15 09:18:18;;;;;;;54.25;25.23;;;;;;;13.42;69.85;94165.41;5037629;28;20029;-87
2023/01/15 09:20:46;;;;;;;48.97;24.13;;;;;;;13.65;69.64;94154.25;5020944;28;20431;-87
2023/01/15 09:23:12;;;;;;;70.50;37.05;;;;;;;13.36;70.17;94144.75;5036860;28;20438;-87
2023/01/15 09:25:38;;;;;;;77.28;41.30;;;;;;;13.25;72.65;94139.66;5037477;28;20036;-88
2023/01/15 09:28:03;;;;;;;61.40;31.73;;;;;;;13.15;71.20;94135.34;5037054;28;20080;-88
2023/01/15 09:30:29;;;;;;;59.17;29.55;;;;;;;13.87;68.65;94129.13;5036786;28;20033;-88
2023/01/15 09:32:55;;;;;;;83.22;39.58;;;;;;;13.28;74.14;94133.84;5020753;28;20029;-87
2023/01/15 09:35:21;;;;;;;73.57;36.88;;;;;;;13.37;72.40;94130.50;5037960;28;20143;-87
2023/01/15 09:37:52;;;;;;;79.70;42.20;;;;;;;14.45;66.15;94130.28;5036755;28;20328;-87
2023/01/15 09:40:47;;;;;;;68.95;35.35;;;;;;;13.74;70.20;94130.66;5037985;28;20083;-87
2023/01/15 09:43:46;;;;;;;74.20;36.35;;;;;;;13.42;70.45;94125.94;5036311;28;20029;-87
2023/01/15 09:46:34;;;;;;;87.45;42.65;;;;;;;14.05;67.29;94130.06;5014910;28;20092;-87
2023/01/15 09:49:17;;;;;;;75.53;39.22;;;;;;;13.79;65.45;94131.34;5036551;28;20128;-88
2023/01/15 09:51:47;;;;;;;;;;;;;;;13.82;67.68;94132.63;5036400;28;20076;-88
2023/01/15 09:54:32;;;;;;;71.35;37.55;;;;;;;13.94;67.84;94130.28;5037491;28;20231;-88
2023/01/15 09:56:58;;;;;;;73.88;36.00;;;;;;;14.11;66.33;94124.41;5037103;28;20068;-86
2023/01/15 09:59:26;;;;;;;67.97;34.05;;;;;;;14.03;65.85;94129.59;5036969;28;20053;-86
2023/01/15 10:01:52;;;;;;;72.03;35.92;;;;;;;13.62;68.21;94123.25;5037023;28;20048;-87
2023/01/15 10:04:37;;;;;;;68.57;33.42;;;;;;;13.78;67.70;94123.75;5035946;28;20026;-86
2023/01/15 10:07:21;;;;;;;64.05;33.40;;;;;;;14.36;65.77;94122.31;5052475;28;20025;-86
2023/01/15 10:10:03;;;;;;;75.85;35.97;;;;;;;13.24;68.95;94108.38;5052359;28;20025;-86
2023/01/15 10:12:37;;;;;;;79.07;41.05;;;;;;;13.83;67.66;94102.59;5037338;28;20029;-87
2023/01/15 10:15:12;;;;;;;88.57;43.90;;;;;;;11.63;90.01;94102.75;5020750;28;20035;-85
2023/01/15 10:17:45;;;;;;;81.65;41.13;;;;;;;13.15;76.33;94095.13;5036811;28;20032;-86
2023/01/15 10:20:16;;;;;;;88.70;40.40;;;;;;;14.11;71.70;94078.84;5035704;28;20028;-86
2023/01/15 10:23:15;;;;;;;82.68;40.40;;;;;;;14.36;66.12;94071.47;5035736;28;20084;-85
2023/01/15 10:25:56;;;;;;;79.18;38.42;;;;;;;14.59;66.35;94064.34;5036719;28;20021;-86
2023/01/15 10:28:30;;;;;;;79.07;42.08;;;;;;;14.17;69.59;94072.38;5036848;28;20075;-86
2023/01/15 10:31:18;;;;;;;94.00;46.67;;;;;;;14.19;69.20;94075.50;5035679;28;20031;-86
2023/01/15 10:34:19;;;;;;;85.35;45.30;;;;;;;14.76;69.01;94061.06;5019164;28;20120;-86
2023/01/15 10:36:49;;;;;;;97.40;49.50;;;;;;;14.14;68.71;94054.53;5035491;28;20443;-86
2023/01/15 10:39:42;;;;;;;92.32;48.42;;;;;;;13.74;72.82;94046.41;5035547;28;20029;-86
2023/01/15 10:42:23;;;;;;;87.30;45.67;;;;;;;14.86;66.25;94048.72;5035313;28;20036;-86
2023/01/15 10:44:54;;;;;;;82.03;42.20;;;;;;;14.64;65.63;94027.31;5026621;28;20025;-87
2023/01/15 10:47:28;;;;;;;86.45;41.28;;;;;;;14.79;67.23;94023.56;5015807;28;20029;-87
2023/01/15 10:49:55;;;;;;;89.30;43.47;;;;;;;13.57;71.70;94013.59;5049191;28;20367;-90
2023/01/15 10:52:28;;;;;;;71.72;37.13;;;;;;;14.47;66.76;94014.03;5035905;28;20021;-90
2023/01/15 10:55:19;;;;;;;80.68;38.95;;;;;;;13.26;71.62;93985.22;5052230;28;20034;-90
2023/01/15 10:58:05;;;;;;;116.85;57.65;;;;;;;14.52;71.52;93982.25;5035611;28;20087;-90
2023/01/15 11:00:31;;;;;;;84.60;41.42;;;;;;;14.66;69.64;93987.47;5052505;28;20029;-90
2023/01/15 11:03:10;;;;;;;92.88;52.88;;;;;;;15.72;65.10;93993.94;5035635;28;20032;-89
2023/01/15 11:05:37;;;;;;;163.57;97.93;;;;;;;15.59;63.34;93990.31;5052419;28;20104;-90
2023/01/15 11:08:07;;;;;;;95.18;46.97;;;;;;;14.76;63.93;93989.88;5051943;28;20029;-91
2023/01/15 11:10:33;;;;;;;90.47;45.65;;;;;;;14.35;67.14;93982.94;5036791;28;20030;-90
2023/01/15 11:21:48;;;;;;;83.25;38.63;;;;;;;15.46;63.01;93975.38;5035819;28;20098;-91
2023/01/15 11:24:15;;;;;;;75.80;37.00;;;;;;;15.40;65.44;93961.53;5035780;28;20021;-90
2023/01/15 11:26:46;;;;;;;71.82;37.65;;;;;;;15.84;64.63;93945.75;5035556;28;20025;-91
2023/01/15 11:29:14;;;;;;;74.07;39.15;;;;;;;15.43;67.41;93950.38;5052146;28;20447;-91
2023/01/15 11:31:40;;;;;;;73.35;39.95;;;;;;;15.18;64.60;93939.47;5035367;28;20069;-90
2023/01/15 11:34:19;;;;;;;80.55;39.30;;;;;;;15.82;64.18;93940.78;5036548;28;20119;-90
2023/01/15 11:36:45;;;;;;;80.32;39.25;;;;;;;14.51;69.16;93923.50;5035477;28;20071;-90
2023/01/15 11:39:29;;;;;;;70.07;34.53;;;;;;;14.72;70.33;93933.53;5035772;28;20053;-90
2023/01/15 11:53:20;;;;;;;90.03;43.65;;;;;;;16.64;61.92;93941.16;5036640;28;20516;-91
2023/01/15 11:56:08;;;;;;;92.22;44.95;;;;;;;15.96;63.79;93940.66;5038887;28;20083;-90
2023/01/15 11:58:40;;;;;;;94.03;49.13;;;;;;;16.46;62.52;93932.53;5039001;28;20075;-90
2023/01/15 12:01:06;;;;;;;88.30;46.78;;;;;;;15.93;63.59;93930.72;5038923;28;20029;-90
2023/01/15 12:03:34;;;;;;;85.80;43.25;;;;;;;16.44;62.47;93922.25;5038713;28;20040;-91
2023/01/15 12:06:04;;;;;;;99.03;49.40;;;;;;;16.43;61.91;93925.22;5013753;28;20042;-90
2023/01/15 12:08:32;;;;;;;88.53;46.63;;;;;;;14.76;64.96;93907.34;5035744;28;20435;-91
2023/01/15 12:11:12;;;;;;;94.13;48.97;;;;;;;14.48;69.89;93910.91;5025692;28;20033;-90
2023/01/15 12:13:42;;;;;;;100.63;48.38;;;;;;;12.97;85.79;93913.44;5036238;28;20068;-91
2023/01/15 12:16:32;;;;;;;106.40;52.90;;;;;;;14.18;79.14;93897.44;5023493;28;20083;-91
2023/01/15 12:19:00;;;;;;;99.95;50.42;;;;;;;14.20;76.86;93903.19;5055068;28;20026;-91
2023/01/15 12:21:44;;;;;;;110.28;54.53;;;;;;;13.97;75.63;93905.03;5055012;28;20108;-90
2023/01/15 12:24:12;;;;;;;118.60;57.40;;;;;;;13.40;83.86;93885.22;5028764;28;20025;-90
2023/01/15 12:26:52;;;;;;;116.60;56.30;;;;;;;12.91;91.55;93893.59;5019674;28;20110;-91